Midnight Sun — CFG7615 — position and weather

sailwx.info

Track history (hours):
 
Tides and Currents Weather Stations Pressure Air Temp Water Temp Dewpoint Dewpoint Depression Visibility Wind Speed Wind Dir Waves Ship Positions

Midnight Sun

Last reported at 2016-Aug-24 04:32 UTC. Time now 2016-Aug-24 06:50 UTC.
Position N 49°18' W 123°08'.

Length 25 m.

Type: Pleasure craft. MMSI: 316001152.

Date/timePositionNaut miles runAvg speedWind from/ knotsBaromVisibWave heightAir tempDewpointWater temp
2016-Aug-24 04:32N 49°18' W 123°08'0 0.0
2016-Aug-24 03:32N 49°18' W 123°08'0 0.0
2016-Aug-24 02:32N 49°18' W 123°08'0 0.0
2016-Aug-24 01:32N 49°18' W 123°08'0 0.0
2016-Aug-24 00:32N 49°18' W 123°08'0 0.0
2016-Aug-23 23:32N 49°18' W 123°08'0 0.0
2016-Aug-23 22:32N 49°18' W 123°08'0 0.0
2016-Aug-23 21:32N 49°18' W 123°08'0 0.0
2016-Aug-23 20:32N 49°18' W 123°08'0 0.0
2016-Aug-23 19:32N 49°18' W 123°08'0 0.0
2016-Aug-23 18:32N 49°18' W 123°08'0 0.0
2016-Aug-23 17:32N 49°18' W 123°08'0 0.0
2016-Aug-23 16:32N 49°18' W 123°08'0 0.0
2016-Aug-23 15:32N 49°18' W 123°08'0 0.0
2016-Aug-23 14:32N 49°18' W 123°08'0 0.0
2016-Aug-23 13:32N 49°18' W 123°08'0 0.0
2016-Aug-23 12:32N 49°18' W 123°08'0 0.0
2016-Aug-23 11:32N 49°18' W 123°08'0 0.0
2016-Aug-23 10:32N 49°18' W 123°08'0 0.0
2016-Aug-23 09:32N 49°18' W 123°08'0 0.0
2016-Aug-23 08:32N 49°18' W 123°08'0 0.0
2016-Aug-23 07:32N 49°18' W 123°08'0 0.0
2016-Aug-23 06:32N 49°18' W 123°08'0 0.0
2016-Aug-23 05:32N 49°18' W 123°08'0 0.0
2016-Aug-23 04:32N 49°18' W 123°08'2 1.9
2016-Aug-23 03:33N 49°18' W 123°05'3 2.7
2016-Aug-23 02:33N 49°16' W 123°07'2 1.8
2016-Aug-23 01:33N 49°18' W 123°06'1 0.8
2016-Aug-23 00:33N 49°18' W 123°08'0 0.0
2016-Aug-22 23:33N 49°18' W 123°08'0 0.0
2016-Aug-22 22:33N 49°18' W 123°08'0 0.0
2016-Aug-22 21:33N 49°18' W 123°08'0 0.0
2016-Aug-22 20:33N 49°18' W 123°08'0 0.0
2016-Aug-22 19:31N 49°18' W 123°08'0 0.0
2016-Aug-22 18:31N 49°18' W 123°08'0 0.0
2016-Aug-22 17:31N 49°18' W 123°08'0 0.0
2016-Aug-22 16:31N 49°18' W 123°08'0 0.0
2016-Aug-22 15:31N 49°18' W 123°08'0 0.0
2016-Aug-22 14:31N 49°18' W 123°08'0 0.0
2016-Aug-22 13:31N 49°18' W 123°08'0 0.0
2016-Aug-22 12:33N 49°18' W 123°08'0 0.0
2016-Aug-22 11:32N 49°18' W 123°08'0 0.0
2016-Aug-22 10:32N 49°18' W 123°08'0 0.0
2016-Aug-22 09:32N 49°18' W 123°08'0 0.0
2016-Aug-22 08:31N 49°18' W 123°08'0 0.0
2016-Aug-22 07:31N 49°18' W 123°08'0 0.0
2016-Aug-22 06:31N 49°18' W 123°08'0 0.0
2016-Aug-22 05:31N 49°18' W 123°08'0 0.0
2016-Aug-22 04:31N 49°18' W 123°08'0 0.0
2016-Aug-22 03:31N 49°18' W 123°08'0 0.0
2016-Aug-22 02:31N 49°18' W 123°08'0 0.0
2016-Aug-22 01:31N 49°18' W 123°08'0 0.0
2016-Aug-22 00:31N 49°18' W 123°08'0 0.0
2016-Aug-21 23:31N 49°18' W 123°08'0 0.0
2016-Aug-21 22:31N 49°18' W 123°08'0 0.0
2016-Aug-21 21:31N 49°18' W 123°08'0 0.0
2016-Aug-21 20:31N 49°18' W 123°08'0 0.0
2016-Aug-21 19:31N 49°18' W 123°08'0 0.0
2016-Aug-21 18:31N 49°18' W 123°08'0 0.0
2016-Aug-21 17:31N 49°18' W 123°08'0 0.0
2016-Aug-21 16:31N 49°18' W 123°08'0 0.0
2016-Aug-21 15:31N 49°18' W 123°08'0 0.0
2016-Aug-21 14:31N 49°18' W 123°08'0 0.0
2016-Aug-21 13:31N 49°18' W 123°08'0 0.0
2016-Aug-21 12:31N 49°18' W 123°08'0 0.0
2016-Aug-21 11:31N 49°18' W 123°08'0 0.0
2016-Aug-21 10:31N 49°18' W 123°08'0 0.0
2016-Aug-21 09:31N 49°18' W 123°08'0 0.0
2016-Aug-21 08:33N 49°18' W 123°08'0 0.0
2016-Aug-21 07:33N 49°18' W 123°08'0 0.0
2016-Aug-21 06:33N 49°18' W 123°08'0 0.0
2016-Aug-21 05:33N 49°18' W 123°08'4 3.7
2016-Aug-21 04:33N 49°18' W 123°02'5 4.9
2016-Aug-21 03:31N 49°19' W 122°55'3 3.2
2016-Aug-21 02:33N 49°22' W 122°53'1 0.3
2016-Aug-20 22:32N 49°23' W 122°53'8 8.0
2016-Aug-20 21:33N 49°18' W 123°01'5 4.5
2016-Aug-20 20:33N 49°18' W 123°08'0 0.0
2016-Aug-20 19:33N 49°18' W 123°08'0 0.0
2016-Aug-20 18:30N 49°18' W 123°08'0 0.0
2016-Aug-20 17:33N 49°18' W 123°08'0 0.0
2016-Aug-20 16:33N 49°18' W 123°08'0 0.0
2016-Aug-20 15:33N 49°18' W 123°08'0 0.0
2016-Aug-20 14:33N 49°18' W 123°08'0 0.0
2016-Aug-20 13:33N 49°18' W 123°08'0 0.0
2016-Aug-20 12:33N 49°18' W 123°08'0 0.0
2016-Aug-20 11:33N 49°18' W 123°08'0 0.0
2016-Aug-20 10:33N 49°18' W 123°08'0 0.0
2016-Aug-20 09:33N 49°18' W 123°08'0 0.0
2016-Aug-20 08:33N 49°18' W 123°08'0 0.0
2016-Aug-20 07:33N 49°18' W 123°08'0 0.0
2016-Aug-20 06:33N 49°18' W 123°08'0 0.0
2016-Aug-20 05:33N 49°18' W 123°08'0 0.0
2016-Aug-20 04:33N 49°18' W 123°08'0 0.0
2016-Aug-20 03:33N 49°18' W 123°08'0 0.0
2016-Aug-20 02:33N 49°18' W 123°08'0 0.0
2016-Aug-20 01:33N 49°18' W 123°08'0 0.0
2016-Aug-20 00:33N 49°18' W 123°08'0 0.0
2016-Aug-19 23:33N 49°18' W 123°08'0 0.0
2016-Aug-19 22:33N 49°18' W 123°08'0 0.0
2016-Aug-19 21:33N 49°18' W 123°08'0 0.0
2016-Aug-19 20:33N 49°18' W 123°08'0 0.0
2016-Aug-19 19:33N 49°18' W 123°08'0 0.0
2016-Aug-19 18:33N 49°18' W 123°08'0 0.0
2016-Aug-19 17:33N 49°18' W 123°08'0 0.0
2016-Aug-19 16:33N 49°18' W 123°08'0 0.0
2016-Aug-19 15:33N 49°18' W 123°08'0 0.0
2016-Aug-19 14:33N 49°18' W 123°08'0 0.0
2016-Aug-19 13:33N 49°18' W 123°08'0 0.0
2016-Aug-19 12:33N 49°18' W 123°08'0 0.0
2016-Aug-19 11:33N 49°18' W 123°08'0 0.0
2016-Aug-19 10:33N 49°18' W 123°08'0 0.0
2016-Aug-19 09:33N 49°18' W 123°08'0 0.0
2016-Aug-19 08:33N 49°18' W 123°08'0 0.0
2016-Aug-19 07:33N 49°18' W 123°08'0 0.0
2016-Aug-19 06:33N 49°18' W 123°08'0 0.0
2016-Aug-19 05:32N 49°18' W 123°08'0 0.0
2016-Aug-19 04:32N 49°18' W 123°08'0 0.0
2016-Aug-19 03:32N 49°18' W 123°08'0 0.0
2016-Aug-19 02:32N 49°18' W 123°08'0 0.0
2016-Aug-19 01:32N 49°18' W 123°08'0 0.0
2016-Aug-19 00:32N 49°18' W 123°08'0 0.0
2016-Aug-18 23:32N 49°18' W 123°08'0 0.0
2016-Aug-18 22:32N 49°18' W 123°08'0 0.0
2016-Aug-18 21:32N 49°18' W 123°08'0 0.0
2016-Aug-18 20:32N 49°18' W 123°08'0 0.0
2016-Aug-18 19:32N 49°18' W 123°08'0 0.0
2016-Aug-18 18:32N 49°18' W 123°08'0 0.0
2016-Aug-18 17:32N 49°18' W 123°08'0 0.0
2016-Aug-18 16:32N 49°18' W 123°08'0 0.0
2016-Aug-18 15:32N 49°18' W 123°08'0 0.0
2016-Aug-18 14:32N 49°18' W 123°08'0 0.0
2016-Aug-18 13:32N 49°18' W 123°08'0 0.0
2016-Aug-18 12:32N 49°18' W 123°08'0 0.0
2016-Aug-18 11:32N 49°18' W 123°08'0 0.0
2016-Aug-18 10:32N 49°18' W 123°08'0 0.0
2016-Aug-18 09:32N 49°18' W 123°08'0 0.0
2016-Aug-18 08:29N 49°18' W 123°08'0 0.0
2016-Aug-18 07:32N 49°18' W 123°08'0 0.0
2016-Aug-18 06:32N 49°18' W 123°08'0 0.0
2016-Aug-18 05:32N 49°18' W 123°08'0 0.0
2016-Aug-18 04:33N 49°18' W 123°08'0 0.0
2016-Aug-18 03:33N 49°18' W 123°08'1 0.8
2016-Aug-18 02:33N 49°18' W 123°07'8 8.1
2016-Aug-18 01:33N 49°19' W 123°19'9 8.4
2016-Aug-18 00:32N 49°21' W 123°32'8 8.2
2016-Aug-17 23:33N 49°24' W 123°43'8 8.4
2016-Aug-17 22:33N 49°28' W 123°54'9 8.6
2016-Aug-17 21:33N 49°35' W 124°03'3 3.0
2016-Aug-17 20:31N 49°38' W 124°02'0 0.0
2016-Aug-17 19:31N 49°38' W 124°02'0 0.0
2016-Aug-17 18:30N 49°38' W 124°02'0 0.0
2016-Aug-17 17:33N 49°38' W 124°02'0 0.0
2016-Aug-17 16:33N 49°38' W 124°02'0 0.0
2016-Aug-17 15:33N 49°38' W 124°02'0 0.0
2016-Aug-17 14:33N 49°38' W 124°02'0 0.0
2016-Aug-17 13:33N 49°38' W 124°02'0 0.0
2016-Aug-17 12:33N 49°38' W 124°02'0 0.0
2016-Aug-17 11:33N 49°38' W 124°02'0 0.0
2016-Aug-17 10:33N 49°38' W 124°02'0 0.0
2016-Aug-17 09:33N 49°38' W 124°02'0 0.0
2016-Aug-17 08:33N 49°38' W 124°02'0 0.0
2016-Aug-17 07:33N 49°38' W 124°02'0 0.0
2016-Aug-17 06:33N 49°38' W 124°02'0 0.0
2016-Aug-17 05:33N 49°38' W 124°02'0 0.0
2016-Aug-17 04:27N 49°38' W 124°02'0 0.0
2016-Aug-17 03:33N 49°38' W 124°02'0 0.0
2016-Aug-17 02:33N 49°38' W 124°02'0 0.0
2016-Aug-17 01:33N 49°38' W 124°02'4 3.6
2016-Aug-17 00:34N 49°38' W 124°07'9 8.5
2016-Aug-16 23:33N 49°43' W 124°18'9 9.0
2016-Aug-16 22:33N 49°47' W 124°31'9 8.7
2016-Aug-16 21:32N 49°50' W 124°43'8 8.5
2016-Aug-16 20:33N 49°55' W 124°54'9 8.7
2016-Aug-16 19:33N 50°01' W 125°04'7 7.2
2016-Aug-16 18:33N 50°06' W 125°12'0 0.1
2016-Aug-16 17:31N 50°06' W 125°12'0 0.0
2016-Aug-16 16:31N 50°06' W 125°12'0 0.0
2016-Aug-16 15:31N 50°06' W 125°12'0 0.0
2016-Aug-16 14:31N 50°06' W 125°12'0 0.0
2016-Aug-16 13:31N 50°06' W 125°12'0 0.0
2016-Aug-16 12:31N 50°06' W 125°12'0 0.0
2016-Aug-16 11:31N 50°06' W 125°12'0 0.0
2016-Aug-16 10:31N 50°06' W 125°12'0 0.0
2016-Aug-16 09:31N 50°06' W 125°12'0 0.0
2016-Aug-16 08:31N 50°06' W 125°12'0 0.0
2016-Aug-16 07:31N 50°06' W 125°12'0 0.0
2016-Aug-16 04:31N 50°06' W 125°12'0 0.0
2016-Aug-16 03:28N 50°06' W 125°12'0 0.0
2016-Aug-16 02:31N 50°06' W 125°12'0 0.0
2016-Aug-16 01:31N 50°06' W 125°12'0 0.0
2016-Aug-16 00:31N 50°06' W 125°12'0 0.0
2016-Aug-15 23:31N 50°06' W 125°12'0 0.0
2016-Aug-15 22:31N 50°06' W 125°12'0 0.0
2016-Aug-15 21:31N 50°06' W 125°12'0 0.0
2016-Aug-15 20:31N 50°06' W 125°12'0 0.0
2016-Aug-15 19:31N 50°06' W 125°12'0 0.0
2016-Aug-15 18:31N 50°06' W 125°12'0 0.0
2016-Aug-15 17:31N 50°06' W 125°12'0 0.0
2016-Aug-15 16:31N 50°06' W 125°12'0 0.0
2016-Aug-15 15:31N 50°06' W 125°12'0 0.0
2016-Aug-15 14:31N 50°06' W 125°12'0 0.0
2016-Aug-15 13:31N 50°06' W 125°12'0 0.0
2016-Aug-15 12:31N 50°06' W 125°12'0 0.0
2016-Aug-15 11:25N 50°06' W 125°12'0 0.0
2016-Aug-15 10:31N 50°06' W 125°12'0 0.0
2016-Aug-15 09:31N 50°06' W 125°12'0 0.0
2016-Aug-15 08:31N 50°06' W 125°12'0 0.0
2016-Aug-15 07:31N 50°06' W 125°12'0 0.0
2016-Aug-15 06:31N 50°06' W 125°12'0 0.0
2016-Aug-15 04:31N 50°06' W 125°12'0 0.0
2016-Aug-15 03:31N 50°06' W 125°12'0 0.0
2016-Aug-15 02:31N 50°06' W 125°12'0 0.0
2016-Aug-15 01:31N 50°06' W 125°12'0 0.0
2016-Aug-15 00:31N 50°06' W 125°12'0 0.0
2016-Aug-14 23:31N 50°06' W 125°12'0 0.0
2016-Aug-14 22:31N 50°06' W 125°12'0 0.0
2016-Aug-14 21:31N 50°06' W 125°12'0 0.0
2016-Aug-14 20:31N 50°06' W 125°12'0 0.0
2016-Aug-14 19:31N 50°06' W 125°12'0 0.0
2016-Aug-14 18:31N 50°06' W 125°12'0 0.0
2016-Aug-14 17:31N 50°06' W 125°12'0 0.0
2016-Aug-14 16:31N 50°06' W 125°12'0 0.0
2016-Aug-14 15:31N 50°06' W 125°12'0 0.0
2016-Aug-14 14:31N 50°06' W 125°12'0 0.0
2016-Aug-14 13:31N 50°06' W 125°12'0 0.0
2016-Aug-14 12:31N 50°06' W 125°12'0 0.0
2016-Aug-14 11:31N 50°06' W 125°12'0 0.0
2016-Aug-14 10:31N 50°06' W 125°12'0 0.0
2016-Aug-14 06:19N 50°06' W 125°12'  
Track history (hours):
 
Tides and Currents Weather Stations Pressure Air Temp Water Temp Dewpoint Dewpoint Depression Visibility Wind Speed Wind Dir Waves Ship Positions

Midnight Sun

Last reported at 2016-Aug-24 04:32 UTC. Time now 2016-Aug-24 06:50 UTC.
Position N 49°18' W 123°08'.

Length 25 m.

Type: Pleasure craft. MMSI: 316001152.

Date/timePositionNaut miles runAvg speedWind from/ knotsBaromVisibWave heightAir tempDewpointWater temp
2016-Aug-24 04:32N 49°18' W 123°08'0 0.0
2016-Aug-24 03:32N 49°18' W 123°08'0 0.0
2016-Aug-24 02:32N 49°18' W 123°08'0 0.0
2016-Aug-24 01:32N 49°18' W 123°08'0 0.0
2016-Aug-24 00:32N 49°18' W 123°08'0 0.0
2016-Aug-23 23:32N 49°18' W 123°08'0 0.0
2016-Aug-23 22:32N 49°18' W 123°08'0 0.0
2016-Aug-23 21:32N 49°18' W 123°08'0 0.0
2016-Aug-23 20:32N 49°18' W 123°08'0 0.0
2016-Aug-23 19:32N 49°18' W 123°08'0 0.0
2016-Aug-23 18:32N 49°18' W 123°08'0 0.0
2016-Aug-23 17:32N 49°18' W 123°08'0 0.0
2016-Aug-23 16:32N 49°18' W 123°08'0 0.0
2016-Aug-23 15:32N 49°18' W 123°08'0 0.0
2016-Aug-23 14:32N 49°18' W 123°08'0 0.0
2016-Aug-23 13:32N 49°18' W 123°08'0 0.0
2016-Aug-23 12:32N 49°18' W 123°08'0 0.0
2016-Aug-23 11:32N 49°18' W 123°08'0 0.0
2016-Aug-23 10:32N 49°18' W 123°08'0 0.0
2016-Aug-23 09:32N 49°18' W 123°08'0 0.0
2016-Aug-23 08:32N 49°18' W 123°08'0 0.0
2016-Aug-23 07:32N 49°18' W 123°08'0 0.0
2016-Aug-23 06:32N 49°18' W 123°08'0 0.0
2016-Aug-23 05:32N 49°18' W 123°08'0 0.0
2016-Aug-23 04:32N 49°18' W 123°08'2 1.9
2016-Aug-23 03:33N 49°18' W 123°05'3 2.7
2016-Aug-23 02:33N 49°16' W 123°07'2 1.8
2016-Aug-23 01:33N 49°18' W 123°06'1 0.8
2016-Aug-23 00:33N 49°18' W 123°08'0 0.0
2016-Aug-22 23:33N 49°18' W 123°08'0 0.0
2016-Aug-22 22:33N 49°18' W 123°08'0 0.0
2016-Aug-22 21:33N 49°18' W 123°08'0 0.0
2016-Aug-22 20:33N 49°18' W 123°08'0 0.0
2016-Aug-22 19:31N 49°18' W 123°08'0 0.0
2016-Aug-22 18:31N 49°18' W 123°08'0 0.0
2016-Aug-22 17:31N 49°18' W 123°08'0 0.0
2016-Aug-22 16:31N 49°18' W 123°08'0 0.0
2016-Aug-22 15:31N 49°18' W 123°08'0 0.0
2016-Aug-22 14:31N 49°18' W 123°08'0 0.0
2016-Aug-22 13:31N 49°18' W 123°08'0 0.0
2016-Aug-22 12:33N 49°18' W 123°08'0 0.0
2016-Aug-22 11:32N 49°18' W 123°08'0 0.0
2016-Aug-22 10:32N 49°18' W 123°08'0 0.0
2016-Aug-22 09:32N 49°18' W 123°08'0 0.0
2016-Aug-22 08:31N 49°18' W 123°08'0 0.0
2016-Aug-22 07:31N 49°18' W 123°08'0 0.0
2016-Aug-22 06:31N 49°18' W 123°08'0 0.0
2016-Aug-22 05:31N 49°18' W 123°08'0 0.0
2016-Aug-22 04:31N 49°18' W 123°08'0 0.0
2016-Aug-22 03:31N 49°18' W 123°08'0 0.0
2016-Aug-22 02:31N 49°18' W 123°08'0 0.0
2016-Aug-22 01:31N 49°18' W 123°08'0 0.0
2016-Aug-22 00:31N 49°18' W 123°08'0 0.0
2016-Aug-21 23:31N 49°18' W 123°08'0 0.0
2016-Aug-21 22:31N 49°18' W 123°08'0 0.0
2016-Aug-21 21:31N 49°18' W 123°08'0 0.0
2016-Aug-21 20:31N 49°18' W 123°08'0 0.0
2016-Aug-21 19:31N 49°18' W 123°08'0 0.0
2016-Aug-21 18:31N 49°18' W 123°08'0 0.0
2016-Aug-21 17:31N 49°18' W 123°08'0 0.0
2016-Aug-21 16:31N 49°18' W 123°08'0 0.0
2016-Aug-21 15:31N 49°18' W 123°08'0 0.0
2016-Aug-21 14:31N 49°18' W 123°08'0 0.0
2016-Aug-21 13:31N 49°18' W 123°08'0 0.0
2016-Aug-21 12:31N 49°18' W 123°08'0 0.0
2016-Aug-21 11:31N 49°18' W 123°08'0 0.0
2016-Aug-21 10:31N 49°18' W 123°08'0 0.0
2016-Aug-21 09:31N 49°18' W 123°08'0 0.0
2016-Aug-21 08:33N 49°18' W 123°08'0 0.0
2016-Aug-21 07:33N 49°18' W 123°08'0 0.0
2016-Aug-21 06:33N 49°18' W 123°08'0 0.0
2016-Aug-21 05:33N 49°18' W 123°08'4 3.7
2016-Aug-21 04:33N 49°18' W 123°02'5 4.9
2016-Aug-21 03:31N 49°19' W 122°55'3 3.2
2016-Aug-21 02:33N 49°22' W 122°53'1 0.3
2016-Aug-20 22:32N 49°23' W 122°53'8 8.0
2016-Aug-20 21:33N 49°18' W 123°01'5 4.5
2016-Aug-20 20:33N 49°18' W 123°08'0 0.0
2016-Aug-20 19:33N 49°18' W 123°08'0 0.0
2016-Aug-20 18:30N 49°18' W 123°08'0 0.0
2016-Aug-20 17:33N 49°18' W 123°08'0 0.0
2016-Aug-20 16:33N 49°18' W 123°08'0 0.0
2016-Aug-20 15:33N 49°18' W 123°08'0 0.0
2016-Aug-20 14:33N 49°18' W 123°08'0 0.0
2016-Aug-20 13:33N 49°18' W 123°08'0 0.0
2016-Aug-20 12:33N 49°18' W 123°08'0 0.0
2016-Aug-20 11:33N 49°18' W 123°08'0 0.0
2016-Aug-20 10:33N 49°18' W 123°08'0 0.0
2016-Aug-20 09:33N 49°18' W 123°08'0 0.0
2016-Aug-20 08:33N 49°18' W 123°08'0 0.0
2016-Aug-20 07:33N 49°18' W 123°08'0 0.0
2016-Aug-20 06:33N 49°18' W 123°08'0 0.0
2016-Aug-20 05:33N 49°18' W 123°08'0 0.0
2016-Aug-20 04:33N 49°18' W 123°08'0 0.0
2016-Aug-20 03:33N 49°18' W 123°08'0 0.0
2016-Aug-20 02:33N 49°18' W 123°08'0 0.0
2016-Aug-20 01:33N 49°18' W 123°08'0 0.0
2016-Aug-20 00:33N 49°18' W 123°08'0 0.0
2016-Aug-19 23:33N 49°18' W 123°08'0 0.0
2016-Aug-19 22:33N 49°18' W 123°08'0 0.0
2016-Aug-19 21:33N 49°18' W 123°08'0 0.0
2016-Aug-19 20:33N 49°18' W 123°08'0 0.0
2016-Aug-19 19:33N 49°18' W 123°08'0 0.0
2016-Aug-19 18:33N 49°18' W 123°08'0 0.0
2016-Aug-19 17:33N 49°18' W 123°08'0 0.0
2016-Aug-19 16:33N 49°18' W 123°08'0 0.0
2016-Aug-19 15:33N 49°18' W 123°08'0 0.0
2016-Aug-19 14:33N 49°18' W 123°08'0 0.0
2016-Aug-19 13:33N 49°18' W 123°08'0 0.0
2016-Aug-19 12:33N 49°18' W 123°08'0 0.0
2016-Aug-19 11:33N 49°18' W 123°08'0 0.0
2016-Aug-19 10:33N 49°18' W 123°08'0 0.0
2016-Aug-19 09:33N 49°18' W 123°08'0 0.0
2016-Aug-19 08:33N 49°18' W 123°08'0 0.0
2016-Aug-19 07:33N 49°18' W 123°08'0 0.0
2016-Aug-19 06:33N 49°18' W 123°08'0 0.0
2016-Aug-19 05:32N 49°18' W 123°08'0 0.0
2016-Aug-19 04:32N 49°18' W 123°08'0 0.0
2016-Aug-19 03:32N 49°18' W 123°08'0 0.0
2016-Aug-19 02:32N 49°18' W 123°08'0 0.0
2016-Aug-19 01:32N 49°18' W 123°08'0 0.0
2016-Aug-19 00:32N 49°18' W 123°08'0 0.0
2016-Aug-18 23:32N 49°18' W 123°08'0 0.0
2016-Aug-18 22:32N 49°18' W 123°08'0 0.0
2016-Aug-18 21:32N 49°18' W 123°08'0 0.0
2016-Aug-18 20:32N 49°18' W 123°08'0 0.0
2016-Aug-18 19:32N 49°18' W 123°08'0 0.0
2016-Aug-18 18:32N 49°18' W 123°08'0 0.0
2016-Aug-18 17:32N 49°18' W 123°08'0 0.0
2016-Aug-18 16:32N 49°18' W 123°08'0 0.0
2016-Aug-18 15:32N 49°18' W 123°08'0 0.0
2016-Aug-18 14:32N 49°18' W 123°08'0 0.0
2016-Aug-18 13:32N 49°18' W 123°08'0 0.0
2016-Aug-18 12:32N 49°18' W 123°08'0 0.0
2016-Aug-18 11:32N 49°18' W 123°08'0 0.0
2016-Aug-18 10:32N 49°18' W 123°08'0 0.0
2016-Aug-18 09:32N 49°18' W 123°08'0 0.0
2016-Aug-18 08:29N 49°18' W 123°08'0 0.0
2016-Aug-18 07:32N 49°18' W 123°08'0 0.0
2016-Aug-18 06:32N 49°18' W 123°08'0 0.0
2016-Aug-18 05:32N 49°18' W 123°08'0 0.0
2016-Aug-18 04:33N 49°18' W 123°08'0 0.0
2016-Aug-18 03:33N 49°18' W 123°08'1 0.8
2016-Aug-18 02:33N 49°18' W 123°07'8 8.1
2016-Aug-18 01:33N 49°19' W 123°19'9 8.4
2016-Aug-18 00:32N 49°21' W 123°32'8 8.2
2016-Aug-17 23:33N 49°24' W 123°43'8 8.4
2016-Aug-17 22:33N 49°28' W 123°54'9 8.6
2016-Aug-17 21:33N 49°35' W 124°03'3 3.0
2016-Aug-17 20:31N 49°38' W 124°02'0 0.0
2016-Aug-17 19:31N 49°38' W 124°02'0 0.0
2016-Aug-17 18:30N 49°38' W 124°02'0 0.0
2016-Aug-17 17:33N 49°38' W 124°02'0 0.0
2016-Aug-17 16:33N 49°38' W 124°02'0 0.0
2016-Aug-17 15:33N 49°38' W 124°02'0 0.0
2016-Aug-17 14:33N 49°38' W 124°02'0 0.0
2016-Aug-17 13:33N 49°38' W 124°02'0 0.0
2016-Aug-17 12:33N 49°38' W 124°02'0 0.0
2016-Aug-17 11:33N 49°38' W 124°02'0 0.0
2016-Aug-17 10:33N 49°38' W 124°02'0 0.0
2016-Aug-17 09:33N 49°38' W 124°02'0 0.0
2016-Aug-17 08:33N 49°38' W 124°02'0 0.0
2016-Aug-17 07:33N 49°38' W 124°02'0 0.0
2016-Aug-17 06:33N 49°38' W 124°02'0 0.0
2016-Aug-17 05:33N 49°38' W 124°02'0 0.0
2016-Aug-17 04:27N 49°38' W 124°02'0 0.0
2016-Aug-17 03:33N 49°38' W 124°02'0 0.0
2016-Aug-17 02:33N 49°38' W 124°02'0 0.0
2016-Aug-17 01:33N 49°38' W 124°02'4 3.6
2016-Aug-17 00:34N 49°38' W 124°07'9 8.5
2016-Aug-16 23:33N 49°43' W 124°18'9 9.0
2016-Aug-16 22:33N 49°47' W 124°31'9 8.7
2016-Aug-16 21:32N 49°50' W 124°43'8 8.5
2016-Aug-16 20:33N 49°55' W 124°54'9 8.7
2016-Aug-16 19:33N 50°01' W 125°04'7 7.2
2016-Aug-16 18:33N 50°06' W 125°12'0 0.1
2016-Aug-16 17:31N 50°06' W 125°12'0 0.0
2016-Aug-16 16:31N 50°06' W 125°12'0 0.0
2016-Aug-16 15:31N 50°06' W 125°12'0 0.0
2016-Aug-16 14:31N 50°06' W 125°12'0 0.0
2016-Aug-16 13:31N 50°06' W 125°12'0 0.0
2016-Aug-16 12:31N 50°06' W 125°12'0 0.0
2016-Aug-16 11:31N 50°06' W 125°12'0 0.0
2016-Aug-16 10:31N 50°06' W 125°12'0 0.0
2016-Aug-16 09:31N 50°06' W 125°12'0 0.0
2016-Aug-16 08:31N 50°06' W 125°12'0 0.0
2016-Aug-16 07:31N 50°06' W 125°12'0 0.0
2016-Aug-16 04:31N 50°06' W 125°12'0 0.0
2016-Aug-16 03:28N 50°06' W 125°12'0 0.0
2016-Aug-16 02:31N 50°06' W 125°12'0 0.0
2016-Aug-16 01:31N 50°06' W 125°12'0 0.0
2016-Aug-16 00:31N 50°06' W 125°12'0 0.0
2016-Aug-15 23:31N 50°06' W 125°12'0 0.0
2016-Aug-15 22:31N 50°06' W 125°12'0 0.0
2016-Aug-15 21:31N 50°06' W 125°12'0 0.0
2016-Aug-15 20:31N 50°06' W 125°12'0 0.0
2016-Aug-15 19:31N 50°06' W 125°12'0 0.0
2016-Aug-15 18:31N 50°06' W 125°12'0 0.0
2016-Aug-15 17:31N 50°06' W 125°12'0 0.0
2016-Aug-15 16:31N 50°06' W 125°12'0 0.0
2016-Aug-15 15:31N 50°06' W 125°12'0 0.0
2016-Aug-15 14:31N 50°06' W 125°12'0 0.0
2016-Aug-15 13:31N 50°06' W 125°12'0 0.0
2016-Aug-15 12:31N 50°06' W 125°12'0 0.0
2016-Aug-15 11:25N 50°06' W 125°12'0 0.0
2016-Aug-15 10:31N 50°06' W 125°12'0 0.0
2016-Aug-15 09:31N 50°06' W 125°12'0 0.0
2016-Aug-15 08:31N 50°06' W 125°12'0 0.0
2016-Aug-15 07:31N 50°06' W 125°12'0 0.0
2016-Aug-15 06:31N 50°06' W 125°12'0 0.0
2016-Aug-15 04:31N 50°06' W 125°12'0 0.0
2016-Aug-15 03:31N 50°06' W 125°12'0 0.0
2016-Aug-15 02:31N 50°06' W 125°12'0 0.0
2016-Aug-15 01:31N 50°06' W 125°12'0 0.0
2016-Aug-15 00:31N 50°06' W 125°12'0 0.0
2016-Aug-14 23:31N 50°06' W 125°12'0 0.0
2016-Aug-14 22:31N 50°06' W 125°12'0 0.0
2016-Aug-14 21:31N 50°06' W 125°12'0 0.0
2016-Aug-14 20:31N 50°06' W 125°12'0 0.0
2016-Aug-14 19:31N 50°06' W 125°12'0 0.0
2016-Aug-14 18:31N 50°06' W 125°12'0 0.0
2016-Aug-14 17:31N 50°06' W 125°12'0 0.0
2016-Aug-14 16:31N 50°06' W 125°12'0 0.0
2016-Aug-14 15:31N 50°06' W 125°12'0 0.0
2016-Aug-14 14:31N 50°06' W 125°12'0 0.0
2016-Aug-14 13:31N 50°06' W 125°12'0 0.0
2016-Aug-14 12:31N 50°06' W 125°12'0 0.0
2016-Aug-14 11:31N 50°06' W 125°12'0 0.0
2016-Aug-14 10:31N 50°06' W 125°12'0 0.0
2016-Aug-14 06:19N 50°06' W 125°12'  

Dump ship's entire track history